createdAt,value
2023-03-27T00:00:30.506Z,60.89
2023-03-27T00:01:57.375Z,60.72
2023-03-27T00:03:21.039Z,60.54
2023-03-27T00:04:44.799Z,60.97
2023-03-27T00:06:12.070Z,60.67
2023-03-27T00:07:36.427Z,60.73
2023-03-27T00:08:57.547Z,60.68
2023-03-27T00:10:26.622Z,60.71
2023-03-27T00:11:51.752Z,60.75
2023-03-27T00:13:14.673Z,60.83
2023-03-27T00:14:38.936Z,60.63
2023-03-27T00:16:05.407Z,60.63
2023-03-27T00:17:26.842Z,60.73
2023-03-27T00:18:49.408Z,60.75
2023-03-27T00:20:13.826Z,60.65
2023-03-27T00:21:36.275Z,60.78
2023-03-27T00:22:58.783Z,60.86
2023-03-27T00:24:21.339Z,60.90
2023-03-27T00:25:42.620Z,60.54
2023-03-27T00:27:05.163Z,60.64
2023-03-27T00:28:28.832Z,60.96
2023-03-27T00:29:54.099Z,60.91
2023-03-27T00:31:17.336Z,60.99
2023-03-27T00:32:40.494Z,60.93
2023-03-27T00:34:06.146Z,61.08
2023-03-27T00:35:35.977Z,60.89
2023-03-27T00:37:00.721Z,60.79
2023-03-27T00:38:24.920Z,61.05
2023-03-27T00:39:50.618Z,61.26
2023-03-27T00:41:13.123Z,61.37
2023-03-27T00:42:35.216Z,61.42
2023-03-27T00:43:59.129Z,61.45
2023-03-27T00:45:23.141Z,61.51
2023-03-27T00:46:47.083Z,61.55
2023-03-27T00:48:22.311Z,61.54
2023-03-27T00:50:00.845Z,61.83
2023-03-27T00:52:02.726Z,61.68
2023-03-27T00:53:29.481Z,61.63
2023-03-27T00:54:51.127Z,61.86
2023-03-27T00:56:15.876Z,61.92
2023-03-27T00:57:54.538Z,62.01
2023-03-27T00:59:20.808Z,62.09
2023-03-27T01:00:41.817Z,62.09
2023-03-27T01:02:06.293Z,62.11
2023-03-27T01:03:33.937Z,62.28
2023-03-27T01:04:57.867Z,62.22
2023-03-27T01:06:21.614Z,62.33
2023-03-27T01:08:00.647Z,62.46
2023-03-27T01:09:27.290Z,62.46
2023-03-27T01:11:00.584Z,62.49
2023-03-27T01:12:35.040Z,62.48
2023-03-27T01:14:10.683Z,62.65
2023-03-27T01:15:38.044Z,62.64
2023-03-27T01:17:18.619Z,62.76
2023-03-27T01:18:54.124Z,62.51
2023-03-27T01:20:52.244Z,62.37
2023-03-27T01:22:39.611Z,62.47
2023-03-27T01:24:42.768Z,62.75
2023-03-27T01:26:35.825Z,62.44
2023-03-27T01:28:32.208Z,62.57
2023-03-27T01:30:15.686Z,62.46
2023-03-27T01:31:56.722Z,62.35
2023-03-27T01:34:12.552Z,62.62
2023-03-27T01:36:16.769Z,62.69
2023-03-27T01:37:54.415Z,62.66
2023-03-27T01:39:49.069Z,62.76
2023-03-27T01:41:16.757Z,62.76
2023-03-27T01:42:48.501Z,63.03
2023-03-27T01:44:18.578Z,62.88
2023-03-27T01:45:46.466Z,62.76
2023-03-27T01:47:15.724Z,62.84
2023-03-27T01:48:46.206Z,62.65
2023-03-27T01:50:14.757Z,62.68
2023-03-27T01:51:40.186Z,62.67
2023-03-27T01:53:08.873Z,62.64
2023-03-27T01:54:35.895Z,62.50
2023-03-27T01:56:08.564Z,62.24
2023-03-27T01:57:38.483Z,62.13
2023-03-27T01:59:16.587Z,62.11
2023-03-27T02:00:52.501Z,61.96
2023-03-27T02:02:22.291Z,61.98
2023-03-27T02:03:48.015Z,61.97
2023-03-27T02:05:15.525Z,61.77
2023-03-27T02:06:42.691Z,61.81
2023-03-27T02:08:10.017Z,61.61
2023-03-27T02:09:35.926Z,61.61
2023-03-27T02:11:01.636Z,61.59
2023-03-27T02:12:30.332Z,61.79
2023-03-27T02:13:55.148Z,61.70
2023-03-27T02:15:23.769Z,61.59
2023-03-27T02:16:54.451Z,61.80
2023-03-27T02:18:22.184Z,61.87
2023-03-27T02:19:47.797Z,62.09
2023-03-27T02:21:14.309Z,62.06
2023-03-27T02:22:40.253Z,61.98
2023-03-27T02:24:08.192Z,62.06
2023-03-27T02:25:39.072Z,62.36
2023-03-27T02:27:15.811Z,62.19
2023-03-27T02:28:53.313Z,62.20
2023-03-27T02:30:19.439Z,62.21
2023-03-27T02:32:09.473Z,62.33
2023-03-27T02:33:46.030Z,62.29
2023-03-27T02:35:38.384Z,62.36
2023-03-27T02:37:05.299Z,62.24
2023-03-27T02:39:09.401Z,62.47
2023-03-27T02:40:41.745Z,62.54
2023-03-27T02:42:40.538Z,62.51
2023-03-27T02:44:11.698Z,62.43
2023-03-27T02:45:56.780Z,62.66
2023-03-27T02:47:27.074Z,62.55
2023-03-27T02:48:52.494Z,62.66
2023-03-27T02:50:23.693Z,62.82
2023-03-27T02:51:52.014Z,62.74
2023-03-27T02:53:20.332Z,62.61
2023-03-27T02:54:46.944Z,62.79
2023-03-27T02:56:12.194Z,62.73
2023-03-27T02:57:40.377Z,62.83
2023-03-27T02:59:35.626Z,62.93
2023-03-27T03:01:00.836Z,63.01
2023-03-27T03:02:35.202Z,63.08
2023-03-27T03:04:00.844Z,63.22
2023-03-27T03:05:48.372Z,63.03
2023-03-27T03:07:10.252Z,63.06
2023-03-27T03:08:38.444Z,63.18
2023-03-27T03:10:01.940Z,63.22
2023-03-27T03:15:56.070Z,63.10
2023-03-27T03:23:14.650Z,63.22
2023-03-27T03:29:55.612Z,63.04
2023-03-27T03:40:34.270Z,62.83
2023-03-27T03:42:52.229Z,62.91
2023-03-27T03:57:11.268Z,62.44
2023-03-27T03:58:34.562Z,62.31
2023-03-27T04:00:01.365Z,62.21
2023-03-27T04:01:41.197Z,62.32
2023-03-27T04:03:04.879Z,62.36
2023-03-27T04:04:33.453Z,62.30
2023-03-27T04:06:05.837Z,62.46
2023-03-27T04:07:31.629Z,62.19
2023-03-27T04:09:13.035Z,61.85
2023-03-27T04:10:56.128Z,61.68
2023-03-27T04:12:40.939Z,61.79
2023-03-27T04:14:11.145Z,61.40
2023-03-27T04:15:38.446Z,61.52
2023-03-27T04:17:14.418Z,61.66
2023-03-27T04:18:41.491Z,61.56
2023-03-27T04:20:14.237Z,61.68
2023-03-27T04:21:39.960Z,61.47
2023-03-27T04:23:02.817Z,61.40
2023-03-27T04:24:36.165Z,61.66
2023-03-27T04:26:19.852Z,61.57
2023-03-27T04:28:23.879Z,61.39
2023-03-27T04:29:59.037Z,61.69
2023-03-27T04:31:28.070Z,61.89
2023-03-27T04:33:30.673Z,62.05
2023-03-27T04:35:20.268Z,62.15
2023-03-27T04:36:54.329Z,61.88
2023-03-27T04:38:26.460Z,62.29
2023-03-27T04:39:51.434Z,62.47
2023-03-27T04:41:15.643Z,62.47
2023-03-27T04:42:45.277Z,62.64
2023-03-27T04:44:14.207Z,62.84
2023-03-27T04:45:39.988Z,62.97
2023-03-27T04:47:02.625Z,62.87
2023-03-27T04:48:25.296Z,63.33
2023-03-27T04:49:52.383Z,63.86
2023-03-27T04:51:17.550Z,64.50
2023-03-27T04:52:40.223Z,64.99
2023-03-27T04:54:06.225Z,65.44
2023-03-27T04:55:38.181Z,65.59
2023-03-27T04:57:04.031Z,65.78
2023-03-27T04:58:28.555Z,66.35
2023-03-27T04:59:53.918Z,66.54
2023-03-27T05:01:36.089Z,66.86
2023-03-27T05:03:03.984Z,67.03
2023-03-27T05:04:39.445Z,67.36
2023-03-27T05:06:12.252Z,67.53
2023-03-27T05:07:36.355Z,68.07
2023-03-27T05:09:01.194Z,68.17
2023-03-27T05:10:27.797Z,68.36
2023-03-27T05:11:52.681Z,68.43
2023-03-27T05:13:15.648Z,68.74
2023-03-27T05:14:37.083Z,69.14
2023-03-27T05:16:10.340Z,69.30
2023-03-27T05:17:41.004Z,69.40
2023-03-27T05:19:05.023Z,69.86
2023-03-27T05:20:35.448Z,69.72
2023-03-27T05:22:03.522Z,69.98
2023-03-27T05:23:26.205Z,70.32
2023-03-27T05:24:47.937Z,70.18
2023-03-27T05:26:10.517Z,70.55
2023-03-27T05:27:50.807Z,70.82
2023-03-27T05:29:14.202Z,70.91
2023-03-27T05:30:39.867Z,70.80
2023-03-27T05:32:15.858Z,70.71
2023-03-27T05:33:45.075Z,70.42
2023-03-27T05:35:09.080Z,70.29
2023-03-27T05:36:37.162Z,70.08
2023-03-27T05:38:02.409Z,70.16
2023-03-27T05:39:29.006Z,70.36
2023-03-27T05:40:52.452Z,70.51
2023-03-27T05:42:15.812Z,70.99
2023-03-27T05:43:40.975Z,71.02
2023-03-27T05:45:03.305Z,71.08
2023-03-27T05:46:24.978Z,70.99
2023-03-27T05:47:58.096Z,70.79
2023-03-27T05:49:21.824Z,70.77
2023-03-27T05:50:49.985Z,70.56
2023-03-27T05:52:16.254Z,70.57
2023-03-27T05:53:39.612Z,70.69
2023-03-27T05:55:15.568Z,70.48
2023-03-27T05:56:42.730Z,70.62
2023-03-27T05:58:06.296Z,70.69
2023-03-27T05:59:28.941Z,70.72
2023-03-27T06:01:04.923Z,70.79
2023-03-27T06:02:27.915Z,70.87
2023-03-27T06:03:58.235Z,71.04
2023-03-27T06:05:24.710Z,71.08
2023-03-27T06:06:47.296Z,71.34
2023-03-27T06:08:11.835Z,71.44
2023-03-27T06:09:35.453Z,71.57
2023-03-27T06:11:16.806Z,71.51
2023-03-27T06:12:41.921Z,71.46
2023-03-27T06:14:18.614Z,71.35
2023-03-27T06:16:08.678Z,71.11
2023-03-27T06:17:41.014Z,70.91
2023-03-27T06:19:05.168Z,70.93
2023-03-27T06:20:27.661Z,70.80
2023-03-27T06:21:50.518Z,70.90
2023-03-27T06:23:13.151Z,71.15
2023-03-27T06:24:41.071Z,71.23
2023-03-27T06:26:05.994Z,71.48
2023-03-27T06:27:28.483Z,71.50
2023-03-27T06:28:51.390Z,71.94
2023-03-27T06:30:18.253Z,72.19
2023-03-27T06:31:58.042Z,72.25
2023-03-27T06:33:35.393Z,72.24
2023-03-27T06:35:04.061Z,72.25
2023-03-27T06:36:47.141Z,72.15
2023-03-27T06:38:09.791Z,72.46
2023-03-27T06:39:33.728Z,72.41
2023-03-27T06:40:56.854Z,72.74
2023-03-27T06:42:20.146Z,72.88
2023-03-27T06:43:59.804Z,72.94
2023-03-27T06:45:53.893Z,72.64
2023-03-27T06:47:27.027Z,72.66
2023-03-27T06:49:11.863Z,72.41
2023-03-27T06:50:43.518Z,72.27
2023-03-27T06:52:27.745Z,72.61
2023-03-27T06:54:00.296Z,72.61
2023-03-27T06:55:25.416Z,72.44
2023-03-27T06:56:49.629Z,72.59
2023-03-27T06:58:22.358Z,72.63
2023-03-27T06:59:44.734Z,72.57
2023-03-27T07:01:09.716Z,72.73
2023-03-27T07:03:01.323Z,72.58
2023-03-27T07:05:04.173Z,72.69
2023-03-27T07:06:39.573Z,72.49
2023-03-27T07:08:19.011Z,72.47
2023-03-27T07:09:47.161Z,72.33
2023-03-27T07:11:12.747Z,72.29
2023-03-27T07:12:48.436Z,72.13
2023-03-27T07:14:12.504Z,72.19
2023-03-27T07:15:39.667Z,71.97
2023-03-27T07:17:02.997Z,71.82
2023-03-27T07:19:08.613Z,71.42
2023-03-27T07:20:35.966Z,70.86
2023-03-27T07:22:12.939Z,70.36
2023-03-27T07:23:38.552Z,70.05
2023-03-27T07:25:06.756Z,69.48
2023-03-27T07:26:39.055Z,69.31
2023-03-27T07:28:31.202Z,69.23
2023-03-27T07:30:03.650Z,69.05
2023-03-27T07:31:51.676Z,68.52
2023-03-27T07:33:30.101Z,67.93
2023-03-27T07:35:00.187Z,67.84
2023-03-27T07:36:46.557Z,67.87
2023-03-27T07:38:10.697Z,67.54
2023-03-27T07:39:53.421Z,67.63
2023-03-27T07:41:19.927Z,67.12
2023-03-27T07:42:53.377Z,66.51
2023-03-27T07:44:16.012Z,65.94
2023-03-27T07:45:49.865Z,65.70
2023-03-27T07:47:12.476Z,64.89
2023-03-27T07:48:37.831Z,64.35
2023-03-27T07:50:00.361Z,64.01
2023-03-27T07:51:29.253Z,63.01
2023-03-27T07:52:58.573Z,62.74
2023-03-27T07:54:22.409Z,62.21
2023-03-27T07:55:48.829Z,61.56
2023-03-27T07:57:11.647Z,61.11
2023-03-27T07:58:49.016Z,60.40
2023-03-27T08:00:17.974Z,60.51
2023-03-27T08:01:50.857Z,60.35
2023-03-27T08:03:15.974Z,60.35
2023-03-27T08:04:45.618Z,60.00
2023-03-27T08:06:10.550Z,59.73
2023-03-27T08:07:42.871Z,59.24
2023-03-27T08:09:08.810Z,58.77
2023-03-27T08:10:39.427Z,58.65
2023-03-27T08:12:08.005Z,58.17
2023-03-27T08:13:36.780Z,58.19
2023-03-27T08:15:03.727Z,57.99
2023-03-27T08:16:32.131Z,57.55
2023-03-27T08:17:57.290Z,57.43
2023-03-27T08:19:25.431Z,57.33
2023-03-27T08:20:57.319Z,57.04
2023-03-27T08:22:21.223Z,57.25
2023-03-27T08:24:07.655Z,57.64
2023-03-27T08:25:30.062Z,57.19
2023-03-27T08:26:55.331Z,57.03
2023-03-27T08:28:18.462Z,57.20
2023-03-27T08:29:42.372Z,57.04
2023-03-27T08:31:11.529Z,56.28
2023-03-27T08:32:34.000Z,56.41
2023-03-27T08:34:00.723Z,56.47
2023-03-27T08:35:29.275Z,56.86
2023-03-27T08:36:52.650Z,58.07
2023-03-27T08:38:26.082Z,57.85
2023-03-27T08:40:14.082Z,58.01
2023-03-27T08:41:41.832Z,58.21
2023-03-27T08:43:16.216Z,58.13
2023-03-27T08:44:38.941Z,57.41
2023-03-27T08:46:37.931Z,57.68
2023-03-27T08:51:03.869Z,58.08
2023-03-27T08:52:32.394Z,58.19
2023-03-27T08:54:08.443Z,57.86
2023-03-27T08:55:40.436Z,58.17
2023-03-27T08:57:22.089Z,57.70
2023-03-27T08:58:48.673Z,57.15
2023-03-27T09:00:25.248Z,57.26
2023-03-27T09:02:09.634Z,57.02
2023-03-27T09:03:37.240Z,57.17
2023-03-27T09:05:04.075Z,57.27
2023-03-27T09:06:29.055Z,57.18
2023-03-27T09:08:05.320Z,56.79
2023-03-27T09:09:46.503Z,57.53
2023-03-27T09:11:22.382Z,57.92
2023-03-27T09:13:05.167Z,58.36
2023-03-27T09:14:37.315Z,58.45
2023-03-27T09:16:03.504Z,58.49
2023-03-27T09:17:32.013Z,58.45
2023-03-27T09:19:07.953Z,58.29
2023-03-27T09:20:34.948Z,58.23
2023-03-27T09:22:01.300Z,58.13
2023-03-27T09:23:44.808Z,58.82
2023-03-27T09:25:40.417Z,59.16
2023-03-27T09:27:18.895Z,59.46
2023-03-27T09:28:56.732Z,60.02
2023-03-27T09:30:31.405Z,59.89
2023-03-27T09:32:14.833Z,60.76
2023-03-27T09:33:41.525Z,61.04
2023-03-27T09:35:05.034Z,61.09
2023-03-27T09:36:27.435Z,60.58
2023-03-27T09:37:58.652Z,59.91
2023-03-27T09:39:27.639Z,60.53
2023-03-27T09:41:07.023Z,60.25
2023-03-27T09:42:37.959Z,59.64
2023-03-27T09:44:06.317Z,59.70
2023-03-27T09:45:35.181Z,59.01
2023-03-27T09:47:06.335Z,58.67
2023-03-27T09:48:37.081Z,58.10
2023-03-27T09:50:26.245Z,57.66
2023-03-27T09:52:04.013Z,57.98
2023-03-27T09:54:00.209Z,57.47
2023-03-27T09:55:27.505Z,57.21
2023-03-27T09:56:53.369Z,57.49
2023-03-27T09:58:26.072Z,57.17
2023-03-27T09:59:58.653Z,57.11
2023-03-27T10:01:38.138Z,57.15
2023-03-27T10:03:24.389Z,57.28
2023-03-27T10:05:05.639Z,56.88
2023-03-27T10:06:33.338Z,57.22
2023-03-27T10:08:31.370Z,57.14
2023-03-27T10:13:03.630Z,57.51
2023-03-27T10:14:36.762Z,57.34
2023-03-27T10:16:01.602Z,56.83
2023-03-27T10:17:39.406Z,56.41
2023-03-27T10:19:06.753Z,56.85
2023-03-27T10:20:41.725Z,56.81
2023-03-27T10:22:20.159Z,55.83
2023-03-27T10:23:46.472Z,55.89
2023-03-27T10:25:20.657Z,55.34
2023-03-27T10:26:52.453Z,55.25
2023-03-27T10:28:20.043Z,54.76
2023-03-27T10:30:28.987Z,54.94
2023-03-27T10:32:05.972Z,55.67
2023-03-27T10:33:56.852Z,56.00
2023-03-27T10:35:45.385Z,55.89
2023-03-27T10:37:28.176Z,55.01
2023-03-27T10:39:15.254Z,55.15
2023-03-27T10:40:52.249Z,55.01
2023-03-27T10:42:28.834Z,54.53
2023-03-27T10:43:50.957Z,54.53
2023-03-27T10:45:18.363Z,53.64
2023-03-27T10:46:42.252Z,53.45
2023-03-27T10:48:11.335Z,53.43
2023-03-27T10:49:45.056Z,52.97
2023-03-27T10:51:36.155Z,53.23
2023-03-27T10:53:18.625Z,53.50
2023-03-27T10:55:06.940Z,53.41
2023-03-27T10:56:37.302Z,53.63
2023-03-27T10:58:06.834Z,53.24
2023-03-27T10:59:41.785Z,53.73
2023-03-27T11:01:19.418Z,53.74
2023-03-27T11:02:50.405Z,55.07
2023-03-27T11:04:20.855Z,54.07
2023-03-27T11:05:53.822Z,53.50
2023-03-27T11:07:41.609Z,52.59
2023-03-27T11:09:10.598Z,52.49
2023-03-27T11:10:44.483Z,51.99
2023-03-27T11:12:14.594Z,51.20
2023-03-27T11:13:50.519Z,50.57
2023-03-27T11:15:17.647Z,49.76
2023-03-27T11:16:44.597Z,49.09
2023-03-27T11:18:29.898Z,49.01
2023-03-27T11:20:07.526Z,48.73
2023-03-27T11:22:15.337Z,49.07
2023-03-27T11:23:47.400Z,48.71
2023-03-27T11:25:29.391Z,47.98
2023-03-27T11:27:01.499Z,46.99
2023-03-27T11:28:32.769Z,46.64
2023-03-27T11:30:08.695Z,46.92
2023-03-27T11:31:48.722Z,47.62
2023-03-27T11:33:54.707Z,47.78
2023-03-27T11:35:27.950Z,47.64
2023-03-27T11:37:36.519Z,48.34
2023-03-27T11:39:08.417Z,48.05
2023-03-27T11:40:56.755Z,47.80
2023-03-27T11:42:25.032Z,47.74
2023-03-27T11:43:48.246Z,47.43
2023-03-27T11:45:46.955Z,47.21
2023-03-27T11:47:20.612Z,47.05
2023-03-27T11:49:00.035Z,46.88
2023-03-27T11:50:37.564Z,46.35
2023-03-27T11:52:20.099Z,46.65
2023-03-27T11:54:22.299Z,45.86
2023-03-27T11:56:49.174Z,46.46
2023-03-27T11:58:30.879Z,46.57
2023-03-27T12:00:12.301Z,46.15
2023-03-27T12:01:52.538Z,46.03
2023-03-27T12:03:53.875Z,46.51
2023-03-27T12:05:41.260Z,46.96
2023-03-27T12:07:36.212Z,46.92
2023-03-27T12:09:29.391Z,46.88
2023-03-27T12:11:20.930Z,46.65
2023-03-27T12:13:13.446Z,46.21
2023-03-27T12:15:09.554Z,46.45
2023-03-27T12:17:14.468Z,47.01
2023-03-27T12:19:10.818Z,47.17
2023-03-27T12:21:23.827Z,47.69
2023-03-27T12:23:05.194Z,47.34
2023-03-27T12:25:21.260Z,47.02
2023-03-27T12:27:55.278Z,46.94
2023-03-27T12:32:20.983Z,46.62
2023-03-27T12:45:51.096Z,37.12
2023-03-27T12:48:53.922Z,39.65
2023-03-27T12:56:58.915Z,44.12
2023-03-27T12:58:46.976Z,45.20
2023-03-27T13:00:44.863Z,45.43
2023-03-27T13:03:06.936Z,45.63
2023-03-27T13:05:24.194Z,45.74
2023-03-27T13:07:13.038Z,46.04
2023-03-27T13:12:29.756Z,46.03
2023-03-27T13:15:15.753Z,46.25
2023-03-27T13:28:35.338Z,48.20
2023-03-27T14:07:50.278Z,48.54
2023-03-27T14:20:50.458Z,48.54
2023-03-27T14:23:20.418Z,47.92
2023-03-27T14:25:16.536Z,47.44
2023-03-27T14:29:13.195Z,46.46
2023-03-27T14:31:15.465Z,46.55
2023-03-27T14:33:53.784Z,46.85
2023-03-27T14:35:47.334Z,49.16
2023-03-27T14:38:00.417Z,48.23
2023-03-27T14:40:08.549Z,47.22
2023-03-27T14:42:16.452Z,46.42
2023-03-27T14:46:11.467Z,46.72
2023-03-27T14:48:08.128Z,46.22
2023-03-27T14:52:09.172Z,46.03
2023-03-27T14:53:57.591Z,46.22
2023-03-27T14:55:50.827Z,45.29
2023-03-27T14:57:57.930Z,45.34
2023-03-27T14:59:43.617Z,45.22
2023-03-27T15:01:23.737Z,45.17
2023-03-27T15:08:05.361Z,45.28
2023-03-27T15:10:34.951Z,44.83
2023-03-27T15:12:28.447Z,44.62
2023-03-27T15:14:11.700Z,43.87
2023-03-27T15:15:58.907Z,43.40
2023-03-27T15:17:42.557Z,43.57
2023-03-27T15:19:16.382Z,42.88
2023-03-27T15:20:45.181Z,43.16
2023-03-27T15:22:13.881Z,42.61
2023-03-27T15:23:50.872Z,42.40
2023-03-27T15:25:21.495Z,42.48
2023-03-27T15:26:43.815Z,42.41
2023-03-27T15:28:11.712Z,41.73
2023-03-27T15:29:44.948Z,41.45
2023-03-27T15:31:14.286Z,41.66
2023-03-27T15:32:42.737Z,41.36
2023-03-27T15:34:09.583Z,41.25
2023-03-27T15:35:36.908Z,41.14
2023-03-27T15:37:04.775Z,41.47
2023-03-27T15:38:42.538Z,41.54
2023-03-27T15:40:36.916Z,41.79
2023-03-27T15:42:06.733Z,41.86
2023-03-27T15:43:32.691Z,41.81
2023-03-27T15:45:06.135Z,41.39
2023-03-27T15:46:39.084Z,41.30
2023-03-27T15:48:04.233Z,41.64
2023-03-27T15:49:40.820Z,41.49
2023-03-27T15:51:09.310Z,41.80
2023-03-27T15:52:51.090Z,41.80
2023-03-27T15:54:54.262Z,42.14
2023-03-27T15:56:24.842Z,42.25
2023-03-27T15:57:50.334Z,42.29
2023-03-27T15:59:16.568Z,41.73
2023-03-27T16:00:49.036Z,41.49
2023-03-27T16:02:20.712Z,41.60
2023-03-27T16:03:45.627Z,41.90
2023-03-27T16:05:08.671Z,41.77
2023-03-27T16:06:37.759Z,41.35
2023-03-27T16:08:02.705Z,41.51
2023-03-27T16:09:37.337Z,41.30
2023-03-27T16:11:10.519Z,41.65
2023-03-27T16:12:36.502Z,41.71
2023-03-27T16:14:14.030Z,41.53
2023-03-27T16:15:56.172Z,41.65
2023-03-27T16:17:35.731Z,41.60
2023-03-27T16:19:01.258Z,41.88
2023-03-27T16:20:37.564Z,41.74
2023-03-27T16:22:00.614Z,41.97
2023-03-27T16:23:25.015Z,41.64
2023-03-27T16:24:46.801Z,41.75
2023-03-27T16:26:15.671Z,41.49
2023-03-27T16:27:40.813Z,41.48
2023-03-27T16:29:29.516Z,41.62
2023-03-27T16:31:15.326Z,41.75
2023-03-27T16:32:48.504Z,43.04
2023-03-27T16:34:22.346Z,42.72
2023-03-27T16:35:50.787Z,42.60
2023-03-27T16:37:17.214Z,42.33
2023-03-27T16:38:40.907Z,42.00
2023-03-27T16:40:10.581Z,42.00
2023-03-27T16:41:39.423Z,42.06
2023-03-27T16:43:21.278Z,41.73
2023-03-27T16:44:48.759Z,41.89
2023-03-27T16:46:18.543Z,41.75
2023-03-27T16:47:53.699Z,41.58
2023-03-27T16:49:19.566Z,41.79
2023-03-27T16:50:42.505Z,41.80
2023-03-27T16:52:05.130Z,41.47
2023-03-27T16:53:30.668Z,41.43
2023-03-27T16:54:53.479Z,41.47
2023-03-27T16:56:20.911Z,41.27
2023-03-27T16:57:43.959Z,41.26
2023-03-27T16:59:09.137Z,41.38
2023-03-27T17:00:34.373Z,41.37
2023-03-27T17:01:57.129Z,41.47
2023-03-27T17:03:31.544Z,41.39
2023-03-27T17:05:05.289Z,41.63
2023-03-27T17:06:40.206Z,41.59
2023-03-27T17:08:13.408Z,42.19
2023-03-27T17:09:54.490Z,41.83
2023-03-27T17:12:36.865Z,42.09
2023-03-27T17:17:27.618Z,42.82
2023-03-27T17:19:17.628Z,42.90
2023-03-27T17:20:44.446Z,43.15
2023-03-27T17:22:09.649Z,42.88
2023-03-27T17:23:33.142Z,42.67
2023-03-27T17:24:57.273Z,42.38
2023-03-27T17:26:24.234Z,42.21
2023-03-27T17:27:49.322Z,42.37
2023-03-27T17:29:11.801Z,42.32
2023-03-27T17:30:39.734Z,42.18
2023-03-27T17:32:08.977Z,42.27
2023-03-27T17:33:34.941Z,42.09
2023-03-27T17:34:58.845Z,41.92
2023-03-27T17:36:39.723Z,42.04
2023-03-27T17:38:08.685Z,42.18
2023-03-27T17:39:31.497Z,42.04
2023-03-27T17:40:53.796Z,42.09
2023-03-27T17:42:15.932Z,41.94
2023-03-27T17:43:38.481Z,41.69
2023-03-27T17:45:03.698Z,41.42
2023-03-27T17:46:26.312Z,41.52
2023-03-27T17:47:48.769Z,41.54
2023-03-27T17:49:11.252Z,41.43
2023-03-27T17:50:36.217Z,41.71
2023-03-27T17:52:00.936Z,42.05
2023-03-27T17:53:23.349Z,41.78
2023-03-27T17:54:48.286Z,41.70
2023-03-27T17:56:11.160Z,41.78
2023-03-27T17:57:34.482Z,41.50
2023-03-27T17:58:58.598Z,41.64
2023-03-27T18:00:23.594Z,41.65
2023-03-27T18:01:48.575Z,41.72
2023-03-27T18:03:13.594Z,41.41
2023-03-27T18:04:38.993Z,41.36
2023-03-27T18:06:06.895Z,41.02
2023-03-27T18:07:38.480Z,41.23
2023-03-27T18:09:02.446Z,41.22
2023-03-27T18:10:24.565Z,41.29
2023-03-27T18:11:46.198Z,41.67
2023-03-27T18:13:07.550Z,41.48
2023-03-27T18:14:30.090Z,41.79
2023-03-27T18:15:57.013Z,41.66
2023-03-27T18:17:21.344Z,41.39
2023-03-27T18:18:54.932Z,41.25
2023-03-27T18:20:18.653Z,41.39
2023-03-27T18:22:01.965Z,41.36
2023-03-27T18:23:25.534Z,41.48
2023-03-27T18:24:47.824Z,41.64
2023-03-27T18:26:12.160Z,41.77
2023-03-27T18:27:33.563Z,41.55
2023-03-27T18:28:55.608Z,41.48
2023-03-27T18:30:19.021Z,41.40
2023-03-27T18:31:45.889Z,41.75
2023-03-27T18:33:08.951Z,41.54
2023-03-27T18:34:39.694Z,41.69
2023-03-27T18:36:08.824Z,41.55
2023-03-27T18:37:35.644Z,41.39
2023-03-27T18:39:04.474Z,41.84
2023-03-27T18:40:35.971Z,41.65
2023-03-27T18:42:01.737Z,41.80
2023-03-27T18:43:24.814Z,41.78
2023-03-27T18:44:48.230Z,41.64
2023-03-27T18:46:17.172Z,41.67
2023-03-27T18:47:40.494Z,41.98
2023-03-27T18:49:13.636Z,41.94
2023-03-27T18:50:49.438Z,41.97
2023-03-27T18:52:12.832Z,41.99
2023-03-27T18:53:36.791Z,42.02
2023-03-27T18:55:04.077Z,42.19
2023-03-27T18:56:26.785Z,42.12
2023-03-27T18:57:48.956Z,42.09
2023-03-27T18:59:11.271Z,42.01
2023-03-27T19:00:49.274Z,42.34
2023-03-27T19:02:11.726Z,42.34
2023-03-27T19:03:35.518Z,42.40
2023-03-27T19:05:01.648Z,42.46
2023-03-27T19:06:26.736Z,42.44
2023-03-27T19:16:02.283Z,42.67
2023-03-27T19:30:46.367Z,43.54
2023-03-27T20:10:59.452Z,44.57
2023-03-27T20:12:27.740Z,44.56
2023-03-27T20:17:07.886Z,44.64
2023-03-27T20:18:59.161Z,44.68
2023-03-27T20:23:37.859Z,44.75
2023-03-27T20:25:00.910Z,44.80
2023-03-27T20:26:35.547Z,45.08
2023-03-27T20:28:11.956Z,44.96
2023-03-27T20:29:45.917Z,45.11
2023-03-27T20:31:31.063Z,45.21
2023-03-27T20:32:54.011Z,45.28
2023-03-27T20:34:20.181Z,45.01
2023-03-27T20:35:53.319Z,45.26
2023-03-27T20:37:19.893Z,45.41
2023-03-27T20:38:59.430Z,45.42
2023-03-27T20:40:28.368Z,45.47
2023-03-27T20:42:07.426Z,45.39
2023-03-27T20:43:37.700Z,45.33
2023-03-27T20:45:00.187Z,45.60
2023-03-27T20:46:39.824Z,45.60
2023-03-27T20:48:24.472Z,45.98
2023-03-27T20:50:08.424Z,45.96
2023-03-27T20:51:40.468Z,46.19
2023-03-27T20:53:20.006Z,46.33
2023-03-27T20:54:55.752Z,46.32
2023-03-27T20:57:24.309Z,46.53
2023-03-27T20:59:17.470Z,46.57
2023-03-27T21:00:50.292Z,46.79
2023-03-27T21:02:19.960Z,47.07
2023-03-27T21:03:46.569Z,47.42
2023-03-27T21:05:16.388Z,47.54
2023-03-27T21:06:52.446Z,47.74
2023-03-27T21:08:43.509Z,48.12
2023-03-27T21:10:34.934Z,48.26
2023-03-27T21:12:03.752Z,48.24
2023-03-27T21:13:35.625Z,48.73
2023-03-27T21:15:11.103Z,49.04
2023-03-27T21:17:15.557Z,49.29
2023-03-27T21:18:44.216Z,49.26
2023-03-27T21:20:26.857Z,49.62
2023-03-27T21:24:26.372Z,49.74
2023-03-27T21:26:41.921Z,50.34
2023-03-27T21:28:18.203Z,50.22
2023-03-27T21:30:11.615Z,50.55
2023-03-27T21:31:38.520Z,50.58
2023-03-27T21:33:59.863Z,51.07
2023-03-27T21:36:10.706Z,51.14
2023-03-27T21:37:34.009Z,51.23
2023-03-27T21:38:58.417Z,51.24
2023-03-27T21:40:35.218Z,51.85
2023-03-27T21:42:23.785Z,51.99
2023-03-27T21:44:16.636Z,52.17
2023-03-27T21:45:43.577Z,51.95
2023-03-27T21:47:37.304Z,52.63
2023-03-27T21:49:14.416Z,52.42
2023-03-27T21:50:37.354Z,52.66
2023-03-27T21:52:12.068Z,53.02
2023-03-27T21:54:14.253Z,52.92
2023-03-27T21:55:41.574Z,52.97
2023-03-27T21:57:07.487Z,53.25
2023-03-27T21:58:37.242Z,53.30
2023-03-27T22:00:12.298Z,53.60
2023-03-27T22:02:16.387Z,54.14
2023-03-27T22:03:45.376Z,53.87
2023-03-27T22:06:11.727Z,53.83
2023-03-27T22:07:27.568Z,53.80
2023-03-27T22:08:50.108Z,54.02
2023-03-27T22:10:36.967Z,54.37
2023-03-27T22:12:16.540Z,54.29
2023-03-27T22:14:12.654Z,54.40
2023-03-27T22:16:23.605Z,54.56
2023-03-27T22:19:02.533Z,54.78
2023-03-27T22:20:35.909Z,54.55
2023-03-27T22:22:35.093Z,54.93
2023-03-27T22:24:10.894Z,55.13
2023-03-27T22:25:36.004Z,55.31
2023-03-27T22:26:58.617Z,55.31
2023-03-27T22:28:29.523Z,55.90
2023-03-27T22:29:54.257Z,55.89
2023-03-27T22:31:19.420Z,55.94
2023-03-27T22:32:44.784Z,56.07
2023-03-27T22:34:07.709Z,56.41
2023-03-27T22:35:30.090Z,56.47
2023-03-27T22:36:53.700Z,56.80
2023-03-27T22:38:15.475Z,56.52
2023-03-27T22:39:37.795Z,56.67
2023-03-27T22:41:01.383Z,56.67
2023-03-27T22:42:25.175Z,56.84
2023-03-27T22:43:49.417Z,57.13
2023-03-27T22:45:26.259Z,57.28
2023-03-27T22:46:48.159Z,57.11
2023-03-27T22:48:14.679Z,57.11
2023-03-27T22:49:38.437Z,57.25
2023-03-27T22:51:03.661Z,57.23
2023-03-27T22:52:26.286Z,57.43
2023-03-27T23:41:31.728Z,58.97
2023-03-27T23:42:55.609Z,58.86
2023-03-27T23:44:20.618Z,58.81
2023-03-27T23:45:43.350Z,59.37
2023-03-27T23:47:06.488Z,58.96
2023-03-27T23:48:29.189Z,59.31
2023-03-27T23:49:51.433Z,59.18
2023-03-27T23:51:14.960Z,59.17
2023-03-27T23:52:37.293Z,59.11
2023-03-27T23:53:59.379Z,59.17
2023-03-27T23:55:20.865Z,59.29
2023-03-27T23:56:43.241Z,59.57
2023-03-27T23:58:06.886Z,59.44
2023-03-27T23:59:29.143Z,59.58
